Time;durP1;ratioP1;P1;durP2;ratioP2;P2;SDS_P1;SDS_P2;PMS_P1;PMS_P2;Temp;Humidity;BMP_temperature;BMP_pressure;BME280_temperature;BME280_humidity;BME280_pressure;Samples;Min_cycle;Max_cycle;Signal;HPM_P1;HPM_P2
2022/08/22 00:00:18;;;;;;;8.55;6.93;;;;;;;13.90;100.00;95767.34;1044234;28;20660;-71
2022/08/22 00:01:09;;;;;;;8.55;6.53;;;;;;;13.91;100.00;95777.59;1048117;28;20433;-71
2022/08/22 00:01:55;;;;;;;10.75;7.22;;;;;;;13.91;100.00;95769.69;1042505;28;20029;-71
2022/08/22 00:03:02;;;;;;;11.45;6.78;;;;;;;13.93;100.00;95766.00;1043254;28;20025;-70
2022/08/22 00:04:03;;;;;;;8.73;6.53;;;;;;;13.90;100.00;95770.75;1045302;28;20048;-70
2022/08/22 00:04:42;;;;;;;7.32;5.80;;;;;;;14.01;100.00;95763.50;1032667;28;20077;-71
2022/08/22 00:05:31;;;;;;;9.05;5.97;;;;;;;14.00;100.00;95761.94;1046672;28;20113;-71
2022/08/22 00:06:09;;;;;;;7.88;6.40;;;;;;;14.00;100.00;95767.22;1048959;28;20048;-72
2022/08/22 00:06:57;;;;;;;8.27;5.88;;;;;;;14.06;100.00;95770.59;1038739;28;20143;-70
2022/08/22 00:07:50;;;;;;;12.00;6.68;;;;;;;14.03;100.00;95771.94;1038370;28;20051;-71
2022/08/22 00:08:49;;;;;;;15.60;7.10;;;;;;;14.00;100.00;95761.16;1046072;28;20413;-71
2022/08/22 00:09:28;;;;;;;10.85;6.80;;;;;;;14.02;100.00;95769.59;1044901;28;20036;-72
2022/08/22 00:10:06;;;;;;;16.10;7.10;;;;;;;13.84;100.00;95742.88;1037490;28;20035;-71
2022/08/22 00:10:42;;;;;;;13.88;7.32;;;;;;;14.00;100.00;95766.44;1038274;28;20037;-71
2022/08/22 00:11:18;;;;;;;20.77;6.90;;;;;;;14.00;100.00;95764.59;1037744;28;20022;-71
2022/08/22 00:12:02;;;;;;;21.23;7.38;;;;;;;13.97;100.00;95761.72;1043867;28;20070;-70
2022/08/22 00:12:42;;;;;;;11.07;6.60;;;;;;;13.97;100.00;95761.72;1046458;28;20074;-71
2022/08/22 00:13:44;;;;;;;15.57;7.00;;;;;;;14.00;100.00;95764.59;1050481;28;20422;-71
2022/08/22 00:14:19;;;;;;;15.35;6.78;;;;;;;13.99;100.00;95764.88;1047942;28;20075;-70
2022/08/22 00:15:02;;;;;;;14.52;6.57;;;;;;;13.98;100.00;95764.06;1051628;28;20144;-71
2022/08/22 00:15:43;;;;;;;9.65;6.85;;;;;;;13.98;100.00;95763.28;1046382;28;20067;-70
2022/08/22 00:16:21;;;;;;;9.98;6.53;;;;;;;13.91;100.00;95753.84;1038472;28;20032;-70
2022/08/22 00:16:59;;;;;;;9.82;7.13;;;;;;;13.95;100.00;95763.84;1038261;28;20473;-70
2022/08/22 00:17:32;;;;;;;13.57;6.53;;;;;;;13.98;100.00;95763.28;1029814;28;20022;-71
2022/08/22 00:18:27;;;;;;;9.80;5.95;;;;;;;13.93;100.00;95744.91;1030116;28;20500;-71
2022/08/22 00:19:12;;;;;;;8.82;6.68;;;;;;;14.00;100.00;95761.16;1030120;28;20019;-71
2022/08/22 00:20:15;;;;;;;11.77;6.68;;;;;;;14.01;100.00;95763.50;1038061;28;20032;-70
2022/08/22 00:20:54;;;;;;;8.88;6.60;;;;;;;14.00;100.00;95764.59;1029742;28;20064;-70
2022/08/22 00:21:31;;;;;;;9.80;7.00;;;;;;;14.02;100.00;95764.31;1033277;28;20065;-70
2022/08/22 00:22:06;;;;;;;8.93;6.63;;;;;;;14.00;100.00;95753.25;1042339;28;20090;-70
2022/08/22 00:23:01;;;;;;;10.18;6.28;;;;;;;14.02;100.00;95759.03;1037969;28;20025;-71
2022/08/22 00:23:37;;;;;;;13.10;6.70;;;;;;;14.02;100.00;95756.41;1028496;28;20033;-71
2022/08/22 00:24:28;;;;;;;8.60;6.30;;;;;;;14.00;100.00;95758.53;1030427;28;20026;-71
2022/08/22 00:25:20;;;;;;;11.20;6.65;;;;;;;14.04;100.00;95764.78;1032502;28;20532;-70
2022/08/22 00:26:01;;;;;;;9.57;6.43;;;;;;;14.03;100.00;95761.38;1043734;28;20028;-71
2022/08/22 00:26:47;;;;;;;9.43;6.20;;;;;;;14.03;100.00;95761.38;1033910;28;20037;-69
2022/08/22 00:27:25;;;;;;;7.20;6.38;;;;;;;14.00;100.00;95743.47;1034204;28;20036;-71
2022/08/22 00:28:16;;;;;;;8.85;6.13;;;;;;;14.05;100.00;95759.25;1036213;28;20029;-72
2022/08/22 00:28:52;;;;;;;;;;;;;;;14.06;100.00;95752.13;1042820;28;20021;-70
2022/08/22 00:29:31;;;;;;;10.27;6.55;;;;;;;14.03;100.00;95750.03;1033880;28;20398;-71
2022/08/22 00:30:10;;;;;;;9.73;6.72;;;;;;;14.01;100.00;95741.63;1038353;28;20099;-70
2022/08/22 00:31:01;;;;;;;11.75;6.78;;;;;;;14.05;100.00;95756.63;1034055;28;20030;-71
2022/08/22 00:31:35;;;;;;;8.35;6.20;;;;;;;14.03;100.00;95750.03;1041483;28;20411;-71
2022/08/22 00:32:10;;;;;;;7.88;5.45;;;;;;;13.99;100.00;95743.78;1034183;28;20018;-71
2022/08/22 00:32:44;;;;;;;13.07;6.63;;;;;;;13.94;100.00;95736.69;1033767;28;20024;-71
2022/08/22 00:33:29;;;;;;;9.23;6.13;;;;;;;14.01;100.00;95750.31;1038068;28;20024;-70
2022/08/22 00:34:05;;;;;;;8.77;6.13;;;;;;;14.00;100.00;95745.34;1038813;28;20033;-71
2022/08/22 00:34:49;;;;;;;9.70;5.95;;;;;;;14.02;100.00;95745.84;1040030;28;20718;-71
2022/08/22 00:35:41;;;;;;;8.68;6.30;;;;;;;14.01;100.00;95737.13;1034838;28;20032;-70
2022/08/22 00:36:23;;;;;;;7.93;5.88;;;;;;;14.09;100.00;95754.97;1033849;28;20022;-70
2022/08/22 00:37:06;;;;;;;10.48;6.57;;;;;;;14.04;100.00;95743.69;1030594;28;20488;-71
2022/08/22 00:37:56;;;;;;;8.05;6.30;;;;;;;14.07;100.00;95751.03;1034310;28;20026;-71
2022/08/22 00:38:29;;;;;;;22.40;7.65;;;;;;;13.99;100.00;95741.13;1029243;28;20581;-70
2022/08/22 00:39:21;;;;;;;10.55;6.82;;;;;;;14.01;100.00;95747.66;1034229;28;20459;-71
2022/08/22 00:40:07;;;;;;;13.82;6.32;;;;;;;13.97;100.00;95754.59;1036808;28;20029;-71
2022/08/22 00:41:02;;;;;;;7.82;6.10;;;;;;;13.87;100.00;95738.88;1042626;28;20414;-70
2022/08/22 00:41:43;;;;;;;10.55;6.38;;;;;;;13.94;100.00;95751.72;1036695;28;20517;-71
2022/08/22 00:42:28;;;;;;;8.55;6.45;;;;;;;13.99;100.00;95754.31;1042293;28;20110;-71
2022/08/22 00:43:30;;;;;;;10.32;6.78;;;;;;;13.99;100.00;95749.03;1044310;28;20033;-71
2022/08/22 00:44:21;;;;;;;11.43;6.05;;;;;;;14.01;100.00;95754.81;1048099;28;20063;-73
2022/08/22 00:45:29;;;;;;;7.38;6.07;;;;;;;13.99;100.00;95751.69;1043818;28;20087;-71
2022/08/22 00:46:19;;;;;;;9.90;6.50;;;;;;;13.94;100.00;95746.47;1042847;28;20025;-72
2022/08/22 00:47:01;;;;;;;11.95;6.82;;;;;;;13.93;100.00;95750.94;1050901;28;20024;-71
2022/08/22 00:47:37;;;;;;;8.68;6.38;;;;;;;13.93;100.00;95750.94;1047176;28;20121;-71
2022/08/22 00:48:23;;;;;;;9.23;6.80;;;;;;;13.91;100.00;95751.22;1047291;28;20645;-71
2022/08/22 00:49:09;;;;;;;7.57;6.78;;;;;;;13.89;100.00;95745.47;1045637;28;20151;-70
2022/08/22 00:49:40;;;;;;;8.90;5.78;;;;;;;13.86;100.00;95740.75;1042971;28;20025;-72
2022/08/22 00:50:48;;;;;;;10.18;7.03;;;;;;;13.94;100.00;95749.88;1043104;28;20033;-71
2022/08/22 00:51:30;;;;;;;12.25;6.70;;;;;;;13.95;100.00;95753.28;1027958;28;20038;-70
2022/08/22 00:52:15;;;;;;;10.85;7.10;;;;;;;13.86;100.00;95745.25;1037754;28;20042;-71
2022/08/22 00:53:18;;;;;;;10.30;7.25;;;;;;;13.86;100.00;95750.53;1047249;28;20066;-71
2022/08/22 00:54:08;;;;;;;8.80;6.40;;;;;;;13.82;100.00;95747.66;1034215;28;20035;-70
2022/08/22 00:54:53;;;;;;;9.05;6.38;;;;;;;13.80;100.00;95747.16;1044114;28;20040;-73
2022/08/22 00:55:36;;;;;;;9.02;6.90;;;;;;;13.77;100.00;95752.97;1042800;28;20037;-72
2022/08/22 00:56:22;;;;;;;9.30;7.03;;;;;;;13.75;100.00;95752.50;1047271;28;20103;-71
2022/08/22 00:57:18;;;;;;;8.40;6.50;;;;;;;13.72;100.00;95755.69;1043126;28;20025;-71
2022/08/22 00:57:54;;;;;;;9.45;6.82;;;;;;;13.72;100.00;95747.00;1041729;28;20100;-72
2022/08/22 00:58:40;;;;;;;9.40;6.90;;;;;;;13.63;100.00;95744.19;1038938;28;20018;-72
2022/08/22 00:59:41;;;;;;;12.30;7.18;;;;;;;13.67;100.00;95747.81;1043105;28;20024;-71
2022/08/22 01:00:17;;;;;;;;;;;;;;;13.65;100.00;95749.97;1039475;28;20112;-73
2022/08/22 01:00:52;;;;;;;16.23;6.95;;;;;;;13.63;100.00;95752.09;1038275;28;20064;-72
2022/08/22 01:01:30;;;;;;;10.95;6.85;;;;;;;13.60;100.00;95752.66;1034115;28;20029;-73
2022/08/22 01:02:19;;;;;;;8.90;6.55;;;;;;;13.61;100.00;95749.72;1040141;28;20053;-72
2022/08/22 01:03:08;;;;;;;12.20;7.05;;;;;;;13.62;100.00;95758.44;1034878;28;20669;-72
2022/08/22 01:03:52;;;;;;;11.65;6.53;;;;;;;13.63;100.00;95752.88;1034578;28;20444;-72
2022/08/22 01:04:30;;;;;;;10.23;6.75;;;;;;;13.67;100.00;95755.75;1041728;28;20028;-72
2022/08/22 01:05:17;;;;;;;9.82;6.45;;;;;;;13.71;100.00;95748.06;1043192;28;20071;-71
2022/08/22 01:05:53;;;;;;;9.00;6.95;;;;;;;13.72;100.00;95750.41;1047021;28;20434;-71
2022/08/22 01:06:42;;;;;;;8.73;6.38;;;;;;;13.71;100.00;95754.09;1042854;28;20051;-72
2022/08/22 01:07:51;;;;;;;8.20;6.03;;;;;;;13.75;100.00;95749.84;1047173;28;20443;-72
2022/08/22 01:08:49;;;;;;;10.80;6.78;;;;;;;13.76;100.00;95758.56;1029949;28;20070;-70
2022/08/22 01:09:42;;;;;;;11.95;6.55;;;;;;;13.76;100.00;95755.91;1035096;28;20053;-71
2022/08/22 01:10:40;;;;;;;8.30;6.03;;;;;;;13.76;100.00;95756.69;1047247;28;20031;-70
2022/08/22 01:11:34;;;;;;;7.35;6.13;;;;;;;13.76;100.00;95754.06;1040988;28;20293;-72
2022/08/22 01:12:25;;;;;;;9.32;6.35;;;;;;;13.77;100.00;95749.56;1045777;28;20060;-72
2022/08/22 01:13:23;;;;;;;10.45;6.32;;;;;;;13.77;100.00;95766.16;1034290;28;20046;-72
2022/08/22 01:14:23;;;;;;;10.68;6.32;;;;;;;13.78;100.00;95766.94;1046922;28;20591;-72
2022/08/22 01:14:55;;;;;;;8.93;5.95;;;;;;;13.75;100.00;95764.88;1038843;28;20029;-72
2022/08/22 01:15:28;;;;;;;7.68;6.07;;;;;;;13.80;100.00;95772.75;1034993;28;20334;-72
2022/08/22 01:16:09;;;;;;;7.43;6.20;;;;;;;13.82;100.00;95770.63;1032265;28;20046;-71
2022/08/22 01:17:00;;;;;;;10.60;6.22;;;;;;;13.82;100.00;95775.91;1039009;28;20021;-72
2022/08/22 01:17:53;;;;;;;8.65;6.53;;;;;;;13.76;100.00;95761.19;1039379;28;20505;-72
2022/08/22 01:18:49;;;;;;;8.20;6.32;;;;;;;13.83;100.00;95777.47;1042454;28;20082;-72
2022/08/22 01:19:28;;;;;;;10.85;6.43;;;;;;;13.80;100.00;95772.75;1028544;28;20584;-71
2022/08/22 01:20:29;;;;;;;10.80;6.97;;;;;;;13.76;100.00;95775.16;1038986;28;20040;-71
2022/08/22 01:21:18;;;;;;;10.93;6.95;;;;;;;13.57;100.00;95747.94;1027315;28;20278;-71
2022/08/22 01:22:22;;;;;;;10.25;6.65;;;;;;;13.69;100.00;95772.06;1031717;28;20026;-71
2022/08/22 01:23:17;;;;;;;11.48;7.05;;;;;;;13.61;100.00;95770.03;1052394;28;20032;-71
2022/08/22 01:24:20;;;;;;;10.90;6.78;;;;;;;13.60;100.00;95768.47;1051293;28;20079;-71
2022/08/22 01:25:23;;;;;;;32.35;8.18;;;;;;;13.60;100.00;95765.84;1043517;28;20490;-72
2022/08/22 01:26:18;;;;;;;12.43;7.22;;;;;;;13.57;100.00;95759.28;1042872;28;20558;-72
2022/08/22 01:27:17;;;;;;;9.23;6.65;;;;;;;13.56;100.00;95767.47;1042266;28;20029;-69
2022/08/22 01:28:00;;;;;;;9.90;6.95;;;;;;;13.52;100.00;95766.47;1043091;28;20037;-72
2022/08/22 01:28:33;;;;;;;9.73;7.05;;;;;;;13.48;100.00;95765.44;1046847;28;20421;-70
2022/08/22 01:29:40;;;;;;;9.68;7.13;;;;;;;13.48;100.00;95770.72;1046939;28;20028;-72
2022/08/22 01:30:33;;;;;;;11.43;6.68;;;;;;;13.46;100.00;95772.84;1051274;28;20652;-71
2022/08/22 01:31:22;;;;;;;11.02;6.93;;;;;;;13.42;100.00;95765.50;1046925;28;20389;-70
2022/08/22 01:32:20;;;;;;;9.50;6.82;;;;;;;13.41;100.00;95771.03;1044556;28;20036;-71
2022/08/22 01:33:02;;;;;;;11.95;7.63;;;;;;;13.40;100.00;95765.00;1046677;28;20075;-72
2022/08/22 01:34:01;;;;;;;8.68;6.68;;;;;;;13.41;100.00;95768.41;1046926;28;20125;-72
2022/08/22 01:34:52;;;;;;;9.25;7.25;;;;;;;13.37;100.00;95768.19;1044203;28;20565;-71
2022/08/22 01:35:32;;;;;;;11.30;7.45;;;;;;;13.36;100.00;95763.97;1048232;28;20032;-72
2022/08/22 01:36:12;;;;;;;9.70;6.93;;;;;;;13.32;100.00;95765.59;1047209;28;20044;-73
2022/08/22 01:36:45;;;;;;;10.52;7.20;;;;;;;13.33;100.00;95769.81;1046920;28;20107;-72
2022/08/22 01:37:31;;;;;;;12.20;7.32;;;;;;;13.32;100.00;95768.25;1043141;28;20847;-72
2022/08/22 01:38:20;;;;;;;13.27;7.10;;;;;;;13.31;100.00;95766.69;1046831;28;20413;-72
2022/08/22 01:39:06;;;;;;;10.07;7.05;;;;;;;13.29;100.00;95771.44;1046974;28;20031;-71
2022/08/22 01:39:54;;;;;;;13.52;7.07;;;;;;;13.28;100.00;95767.25;1046948;28;20040;-72
2022/08/22 01:40:57;;;;;;;9.82;7.05;;;;;;;13.26;100.00;95774.63;1047191;28;20447;-70
2022/08/22 01:41:32;;;;;;;9.98;6.80;;;;;;;13.22;100.00;95757.78;1048137;28;20052;-71
2022/08/22 01:42:21;;;;;;;9.85;6.95;;;;;;;13.25;100.00;95762.53;1043016;28;20071;-72
2022/08/22 01:42:57;;;;;;;9.18;6.72;;;;;;;13.24;100.00;95760.94;1038696;28;20026;-72
2022/08/22 01:43:42;;;;;;;10.15;6.82;;;;;;;13.23;100.00;95759.34;1034778;28;20030;-72
2022/08/22 01:44:36;;;;;;;9.77;6.60;;;;;;;13.23;100.00;95764.59;1034848;28;20025;-72
2022/08/22 01:45:09;;;;;;;11.00;6.75;;;;;;;13.22;100.00;95768.31;1041765;28;20744;-71
2022/08/22 01:45:42;;;;;;;13.10;7.30;;;;;;;13.21;100.00;95766.72;1042661;28;20029;-72
2022/08/22 01:47:12;;;;;;;10.38;7.13;;;;;;;13.22;100.00;95765.69;1037402;28;20160;-72
2022/08/22 01:47:56;;;;;;;7.95;6.53;;;;;;;13.19;100.00;95764.38;1030074;28;20027;-71
2022/08/22 01:48:31;;;;;;;9.68;7.30;;;;;;;13.20;100.00;95765.16;1034412;28;20589;-71
2022/08/22 01:49:15;;;;;;;14.13;7.07;;;;;;;13.19;100.00;95763.59;1030064;28;20742;-72
2022/08/22 01:49:57;;;;;;;14.00;7.13;;;;;;;13.15;100.00;95757.31;1022397;29;20019;-73
2022/08/22 01:50:43;;;;;;;14.93;7.22;;;;;;;13.16;100.00;95764.16;1023858;28;20023;-71
2022/08/22 01:51:22;;;;;;;15.40;7.45;;;;;;;13.09;100.00;95751.31;1029801;28;20579;-70
2022/08/22 01:52:01;;;;;;;10.93;7.72;;;;;;;13.15;100.00;95759.97;1026121;28;20027;-71
2022/08/22 01:52:49;;;;;;;10.90;7.35;;;;;;;13.13;100.00;95769.97;1022407;28;20023;-72
2022/08/22 01:53:26;;;;;;;13.70;7.70;;;;;;;13.07;100.00;95755.28;1026356;28;20086;-72
2022/08/22 01:54:11;;;;;;;25.27;7.97;;;;;;;13.07;100.00;95760.53;1045244;28;20163;-71
2022/08/22 01:54:50;;;;;;;9.40;7.13;;;;;;;13.09;100.00;95767.09;1038652;28;20434;-72
2022/08/22 01:55:31;;;;;;;11.07;8.00;;;;;;;13.03;100.00;95759.53;1038797;28;20105;-71
2022/08/22 01:56:13;;;;;;;13.38;8.23;;;;;;;13.05;100.00;95762.69;1034592;28;20520;-71
2022/08/22 01:56:44;;;;;;;10.50;7.40;;;;;;;12.98;100.00;95763.78;1034576;28;20108;-71
2022/08/22 01:57:15;;;;;;;12.23;8.30;;;;;;;13.02;100.00;95764.00;1035922;28;20017;-71
2022/08/22 01:57:53;;;;;;;10.00;7.32;;;;;;;12.99;100.00;95759.31;1034506;28;20018;-71
2022/08/22 01:58:27;;;;;;;19.10;8.43;;;;;;;13.01;100.00;95769.53;1037533;28;20048;-70
2022/08/22 01:59:00;;;;;;;19.75;7.70;;;;;;;12.98;100.00;95769.06;1035127;28;20485;-70
2022/08/22 01:59:36;;;;;;;18.45;7.95;;;;;;;13.00;100.00;95766.13;1046914;28;20016;-71
2022/08/22 02:00:08;;;;;;;13.20;7.68;;;;;;;12.97;100.00;95767.47;1042782;28;20454;-71
2022/08/22 02:01:15;;;;;;;15.10;7.88;;;;;;;12.93;100.00;95768.31;1033836;28;20528;-72
2022/08/22 02:01:48;;;;;;;10.50;7.25;;;;;;;12.91;100.00;95773.84;1030881;28;20032;-71
2022/08/22 02:02:33;;;;;;;11.50;7.50;;;;;;;12.90;100.00;95772.25;1039983;28;20024;-70
2022/08/22 02:03:41;;;;;;;11.20;7.45;;;;;;;12.88;100.00;95769.13;1038639;28;20558;-71
2022/08/22 02:04:30;;;;;;;12.60;7.32;;;;;;;12.86;100.00;95776.53;1041314;28;20017;-70
2022/08/22 02:05:24;;;;;;;15.77;7.25;;;;;;;12.84;100.00;95773.38;1049776;28;20463;-70
2022/08/22 02:06:07;;;;;;;27.23;8.93;;;;;;;12.76;100.00;95757.38;1046784;28;20028;-70
2022/08/22 02:06:46;;;;;;;12.25;7.70;;;;;;;12.81;100.00;95768.66;1036386;28;20434;-70
2022/08/22 02:07:22;;;;;;;11.30;7.53;;;;;;;12.80;100.00;95771.56;1038622;28;20508;-72
2022/08/22 02:07:59;;;;;;;10.90;7.57;;;;;;;12.77;100.00;95765.00;1046673;28;20024;-71
2022/08/22 02:08:32;;;;;;;9.63;7.18;;;;;;;12.79;100.00;95770.78;1046636;28;20028;-71
2022/08/22 02:09:39;;;;;;;12.98;7.70;;;;;;;12.78;100.00;95766.59;1046099;28;20111;-70
2022/08/22 02:10:16;;;;;;;12.80;7.70;;;;;;;12.78;100.00;95768.44;1048180;28;20048;-71
2022/08/22 02:11:03;;;;;;;10.77;7.95;;;;;;;12.81;100.00;95771.31;1045685;28;20109;-70
2022/08/22 02:11:53;;;;;;;9.77;7.65;;;;;;;12.82;100.00;95769.44;1042478;28;20098;-71
2022/08/22 02:12:44;;;;;;;13.10;7.13;;;;;;;12.81;100.00;95773.13;1039809;28;20025;-71
2022/08/22 02:13:18;;;;;;;11.75;7.47;;;;;;;12.78;100.00;95769.22;1044113;28;20029;-71
2022/08/22 02:14:02;;;;;;;16.77;7.35;;;;;;;12.74;100.00;95761.09;1046781;28;20021;-71
2022/08/22 02:15:07;;;;;;;10.68;7.95;;;;;;;12.81;100.00;95767.88;1046547;28;20620;-70
2022/08/22 02:15:37;;;;;;;21.27;8.85;;;;;;;12.79;100.00;95770.00;1035985;28;20030;-71
2022/08/22 02:16:35;;;;;;;20.20;8.35;;;;;;;12.79;100.00;95770.78;1041327;28;20127;-70
2022/08/22 02:17:14;;;;;;;14.57;8.07;;;;;;;12.78;100.00;95765.81;1038651;28;20064;-71
2022/08/22 02:18:04;;;;;;;11.85;7.82;;;;;;;12.76;100.00;95763.44;1043201;28;20150;-71
2022/08/22 02:18:41;;;;;;;;;;;;;;;12.79;100.00;95764.72;1043185;28;20435;-71
2022/08/22 02:19:19;;;;;;;33.97;9.20;;;;;;;12.80;100.00;95767.06;1046521;28;19923;-71
2022/08/22 02:20:24;;;;;;;22.70;8.95;;;;;;;12.79;100.00;95770.00;1051031;28;20406;-72
2022/08/22 02:21:18;;;;;;;24.98;8.40;;;;;;;12.80;100.00;95767.06;1046039;28;20324;-70
2022/08/22 02:21:58;;;;;;;10.57;7.80;;;;;;;12.79;100.00;95765.50;1041749;28;20049;-70
2022/08/22 02:22:41;;;;;;;10.63;7.45;;;;;;;12.74;100.00;95758.47;1035551;28;20404;-70
2022/08/22 02:23:36;;;;;;;9.55;7.65;;;;;;;12.73;100.00;95756.88;1034372;28;20028;-71
2022/08/22 02:24:15;;;;;;;12.80;7.50;;;;;;;12.77;100.00;95772.13;1033014;28;20026;-71
2022/08/22 02:25:04;;;;;;;10.90;7.38;;;;;;;12.76;100.00;95768.69;1039494;28;20131;-70
2022/08/22 02:26:06;;;;;;;11.18;7.63;;;;;;;12.78;100.00;95763.97;1036347;28;20091;-70
2022/08/22 02:27:03;;;;;;;15.23;7.47;;;;;;;12.79;100.00;95768.16;1042645;28;20028;-72
2022/08/22 02:27:56;;;;;;;13.32;7.93;;;;;;;12.80;100.00;95767.06;1038551;28;20519;-70
2022/08/22 02:28:39;;;;;;;9.48;7.07;;;;;;;12.79;100.00;95770.78;1038713;28;20057;-72
2022/08/22 02:29:11;;;;;;;11.23;7.28;;;;;;;12.76;100.00;95755.53;1039344;28;20045;-71
2022/08/22 02:29:50;;;;;;;11.07;7.20;;;;;;;12.81;100.00;95770.50;1042929;28;20033;-71
2022/08/22 02:30:25;;;;;;;10.90;7.57;;;;;;;12.81;100.00;95770.50;1046228;28;20032;-73
2022/08/22 02:31:09;;;;;;;9.27;8.05;;;;;;;12.74;100.00;95758.47;1042430;28;20021;-72
2022/08/22 02:32:04;;;;;;;11.25;7.78;;;;;;;12.76;100.00;95766.06;1026891;28;20118;-72
2022/08/22 02:32:40;;;;;;;10.25;7.35;;;;;;;12.80;100.00;95772.34;1041358;28;20053;-72
2022/08/22 02:33:37;;;;;;;10.38;8.05;;;;;;;12.82;100.00;95767.59;1048129;28;20024;-72
2022/08/22 02:34:26;;;;;;;9.85;7.68;;;;;;;12.81;100.00;95770.50;1038623;28;20530;-71
2022/08/22 02:35:15;;;;;;;12.43;7.68;;;;;;;12.80;100.00;95774.19;1045911;28;20247;-71
2022/08/22 02:35:53;;;;;;;10.27;7.78;;;;;;;12.77;100.00;95775.53;1041032;28;20025;-72
2022/08/22 02:36:52;;;;;;;8.75;7.68;;;;;;;12.72;100.00;95767.69;1037209;28;20017;-71
2022/08/22 02:37:36;;;;;;;9.15;7.30;;;;;;;12.75;100.00;95769.78;1031900;28;20069;-71
2022/08/22 02:38:20;;;;;;;11.77;7.10;;;;;;;12.74;100.00;95768.19;1045231;28;20021;-72
2022/08/22 02:39:04;;;;;;;12.10;7.20;;;;;;;12.75;100.00;95777.66;1041004;28;20025;-72
2022/08/22 02:39:44;;;;;;;12.25;7.05;;;;;;;12.68;100.00;95756.13;1035013;28;20026;-71
2022/08/22 02:40:34;;;;;;;10.98;7.75;;;;;;;12.74;100.00;95773.44;1031038;28;20837;-72
2022/08/22 02:41:13;;;;;;;9.05;7.43;;;;;;;12.72;100.00;95770.31;1034668;28;20026;-71
2022/08/22 02:41:52;;;;;;;87.20;13.55;;;;;;;12.70;100.00;95767.16;1042682;28;20028;-71
2022/08/22 02:42:34;;;;;;;46.95;9.27;;;;;;;12.66;100.00;95763.50;1043235;28;20067;-71
2022/08/22 02:43:50;;;;;;;22.20;8.20;;;;;;;12.64;100.00;95768.25;1044158;28;20650;-72
2022/08/22 02:44:24;;;;;;;9.52;6.90;;;;;;;12.63;100.00;95770.09;1038407;28;20032;-72
2022/08/22 02:45:00;;;;;;;10.68;7.60;;;;;;;12.63;100.00;95761.41;1037655;28;20021;-71
2022/08/22 02:45:37;;;;;;;8.68;7.32;;;;;;;12.62;100.00;95765.91;1043111;28;20024;-72
2022/08/22 02:46:38;;;;;;;9.68;8.18;;;;;;;12.64;100.00;95769.06;1043211;28;20021;-72
2022/08/22 02:47:11;;;;;;;12.57;7.28;;;;;;;12.64;100.00;95768.25;1033093;28;20033;-72
2022/08/22 02:47:58;;;;;;;14.68;8.43;;;;;;;12.63;100.00;95774.59;1031561;28;20033;-70
2022/08/22 02:49:01;;;;;;;10.07;7.57;;;;;;;12.61;100.00;95774.88;1039146;28;20044;-71
2022/08/22 02:49:46;;;;;;;13.60;7.60;;;;;;;12.61;100.00;95774.06;1032584;28;20045;-71
2022/08/22 02:50:32;;;;;;;10.70;7.03;;;;;;;12.61;100.00;95774.06;1036460;28;20026;-72
2022/08/22 02:51:30;;;;;;;9.25;6.93;;;;;;;12.59;100.00;95770.94;1047294;28;20395;-71
2022/08/22 02:52:09;;;;;;;12.20;8.50;;;;;;;12.57;100.00;95767.78;1044719;28;20529;-72
2022/08/22 02:53:11;;;;;;;10.77;7.28;;;;;;;12.58;100.00;95772.00;1042726;28;20103;-72
2022/08/22 02:54:01;;;;;;;12.20;7.57;;;;;;;12.54;100.00;95774.41;1039408;28;20021;-69
2022/08/22 02:54:46;;;;;;;14.50;7.53;;;;;;;12.50;100.00;95768.88;1039077;28;20024;-71
2022/08/22 02:55:38;;;;;;;10.60;7.13;;;;;;;12.51;100.00;95769.69;1031709;28;20026;-72
2022/08/22 02:56:36;;;;;;;8.93;7.32;;;;;;;12.49;100.00;95772.56;1036453;28;20033;-72
2022/08/22 02:57:12;;;;;;;12.00;7.97;;;;;;;12.36;100.00;95746.09;1044091;28;20529;-72
2022/08/22 02:57:52;;;;;;;12.00;7.57;;;;;;;12.43;100.00;95763.13;1043214;28;20024;-71
2022/08/22 02:58:40;;;;;;;10.65;7.93;;;;;;;12.47;100.00;95768.63;1043151;28;20108;-72
2022/08/22 02:59:14;;;;;;;12.98;7.85;;;;;;;12.46;100.00;95780.22;1035668;28;20049;-72
2022/08/22 03:00:00;;;;;;;11.05;7.85;;;;;;;12.44;100.00;95774.44;1043209;28;20088;-72
2022/08/22 03:00:42;;;;;;;11.82;7.93;;;;;;;12.40;100.00;95774.19;1040292;28;20702;-72
2022/08/22 03:01:25;;;;;;;14.73;8.48;;;;;;;12.42;100.00;95779.19;1050901;28;20023;-71
2022/08/22 03:01:55;;;;;;;10.20;8.13;;;;;;;12.40;100.00;95776.81;1051536;28;20043;-72
2022/08/22 03:02:28;;;;;;;17.45;8.13;;;;;;;12.39;100.00;95772.63;1044827;28;20048;-72
2022/08/22 03:03:05;;;;;;;10.05;7.97;;;;;;;12.38;100.00;95773.69;1035040;28;20045;-71
2022/08/22 03:03:38;;;;;;;11.15;8.13;;;;;;;12.37;100.00;95776.59;1042303;28;20032;-71
2022/08/22 03:04:20;;;;;;;10.32;7.72;;;;;;;12.29;100.00;95764.81;1039100;28;20014;-72
2022/08/22 03:04:51;;;;;;;13.25;8.60;;;;;;;12.32;100.00;95763.47;1031184;28;20030;-71
2022/08/22 03:05:29;;;;;;;10.70;7.85;;;;;;;12.28;100.00;95760.59;1039009;28;20573;-70
2022/08/22 03:06:01;;;;;;;15.45;7.60;;;;;;;12.30;100.00;95763.72;1034522;28;20648;-71
2022/08/22 03:06:44;;;;;;;16.40;8.43;;;;;;;12.33;100.00;95773.72;1026833;28;20031;-71
2022/08/22 03:07:21;;;;;;;17.15;8.38;;;;;;;12.33;100.00;95773.72;1027091;28;20022;-72
2022/08/22 03:08:06;;;;;;;13.20;7.93;;;;;;;12.34;100.00;95774.50;1029879;28;20030;-72
2022/08/22 03:08:41;;;;;;;13.27;7.63;;;;;;;12.30;100.00;95771.63;1039018;28;20503;-72
2022/08/22 03:09:14;;;;;;;11.07;8.57;;;;;;;12.31;100.00;95767.97;1037077;28;20022;-71
2022/08/22 03:10:04;;;;;;;10.57;7.60;;;;;;;12.31;100.00;95773.22;1039196;28;20021;-72
2022/08/22 03:10:38;;;;;;;11.20;7.05;;;;;;;12.30;100.00;95762.94;1038908;28;20027;-72
2022/08/22 03:11:16;;;;;;;12.07;7.43;;;;;;;12.30;100.00;95779.53;1046076;28;20025;-71
2022/08/22 03:12:21;;;;;;;14.73;8.05;;;;;;;12.30;100.00;95774.25;1039305;28;20028;-72
2022/08/22 03:13:08;;;;;;;14.95;8.05;;;;;;;12.30;100.00;95770.84;1038878;28;20056;-71
2022/08/22 03:13:56;;;;;;;20.33;8.13;;;;;;;12.30;100.00;95771.63;1049028;28;20032;-71
2022/08/22 03:14:55;;;;;;;11.82;7.70;;;;;;;12.30;100.00;95774.25;1052242;28;20608;-71
2022/08/22 03:15:30;;;;;;;11.52;7.43;;;;;;;12.30;100.00;95773.47;1036610;28;20041;-72
2022/08/22 03:16:30;;;;;;;10.60;7.13;;;;;;;12.23;100.00;95761.41;1038741;28;20034;-71
2022/08/22 03:17:17;;;;;;;12.05;7.88;;;;;;;12.29;100.00;95772.69;1043252;28;20123;-72
2022/08/22 03:17:56;;;;;;;10.15;7.75;;;;;;;12.29;100.00;95774.53;1038531;28;20029;-72
2022/08/22 03:18:50;;;;;;;9.77;7.20;;;;;;;12.26;100.00;95773.25;1039803;28;20108;-71
2022/08/22 03:19:49;;;;;;;19.13;9.18;;;;;;;12.28;100.00;95776.41;1037625;28;20076;-72
2022/08/22 03:20:39;;;;;;;19.35;8.05;;;;;;;12.23;100.00;95768.50;1047315;28;20075;-72
2022/08/22 03:21:32;;;;;;;16.02;7.88;;;;;;;12.26;100.00;95773.25;1048285;28;20316;-71
2022/08/22 03:22:08;;;;;;;12.57;7.32;;;;;;;12.25;100.00;95772.44;1047331;28;20039;-71
2022/08/22 03:23:05;;;;;;;11.23;7.63;;;;;;;12.23;100.00;95777.19;1043191;28;20119;-72
2022/08/22 03:23:39;;;;;;;11.13;7.05;;;;;;;12.22;100.00;95775.63;1037367;28;20177;-72
2022/08/22 03:24:28;;;;;;;9.77;7.45;;;;;;;12.25;100.00;95777.72;1035190;28;20500;-72
2022/08/22 03:25:04;;;;;;;10.02;6.93;;;;;;;12.26;100.00;95783.75;1041206;28;20456;-72
2022/08/22 03:25:53;;;;;;;8.68;6.95;;;;;;;12.25;100.00;95769.81;1042707;28;20031;-71
2022/08/22 03:26:28;;;;;;;9.40;7.18;;;;;;;12.25;100.00;95769.03;1038946;28;20381;-72
2022/08/22 03:27:04;;;;;;;11.35;7.47;;;;;;;12.25;100.00;95767.19;1043109;28;20354;-71
2022/08/22 03:27:41;;;;;;;8.77;6.97;;;;;;;12.24;100.00;95770.88;1043009;28;20665;-71
2022/08/22 03:28:19;;;;;;;9.93;7.68;;;;;;;12.21;100.00;95762.75;1039123;28;20026;-71
2022/08/22 03:29:10;;;;;;;8.88;7.78;;;;;;;12.19;100.00;95763.00;1035034;28;20037;-72
2022/08/22 03:29:46;;;;;;;12.65;7.45;;;;;;;12.23;100.00;95768.50;1042970;28;20024;-72
2022/08/22 03:30:32;;;;;;;9.25;7.45;;;;;;;12.18;100.00;95766.72;1038944;28;20060;-72
2022/08/22 03:31:16;;;;;;;10.77;7.95;;;;;;;12.21;100.00;95760.91;1038973;28;20040;-71